sensor_id;sensor_type;location;lat;lon;timestamp;temperature;humidity
30336;DHT22;17142;47.990;7.846;2023-03-14T00:02:14;9.30;99.90
30336;DHT22;17142;47.990;7.846;2023-03-14T00:04:39;9.30;99.90
30336;DHT22;17142;47.990;7.846;2023-03-14T00:07:12;9.40;99.90
30336;DHT22;17142;47.990;7.846;2023-03-14T00:09:38;9.40;99.90
30336;DHT22;17142;47.990;7.846;2023-03-14T00:12:12;9.40;99.90
30336;DHT22;17142;47.990;7.846;2023-03-14T00:14:39;9.40;99.90
30336;DHT22;17142;47.990;7.846;2023-03-14T00:17:13;9.30;99.90
30336;DHT22;17142;47.990;7.846;2023-03-14T00:19:39;9.40;99.90
30336;DHT22;17142;47.990;7.846;2023-03-14T00:22:05;9.40;99.90
30336;DHT22;17142;47.990;7.846;2023-03-14T00:24:30;9.40;99.90
30336;DHT22;17142;47.990;7.846;2023-03-14T00:27:03;9.40;99.90
30336;DHT22;17142;47.990;7.846;2023-03-14T00:29:28;9.50;99.90
30336;DHT22;17142;47.990;7.846;2023-03-14T00:32:00;9.40;99.90
30336;DHT22;17142;47.990;7.846;2023-03-14T00:34:41;9.50;99.90
30336;DHT22;17142;47.990;7.846;2023-03-14T00:37:09;9.50;99.90
30336;DHT22;17142;47.990;7.846;2023-03-14T00:39:51;9.60;99.90
30336;DHT22;17142;47.990;7.846;2023-03-14T00:42:19;9.60;99.90
30336;DHT22;17142;47.990;7.846;2023-03-14T00:44:48;9.70;99.90
30336;DHT22;17142;47.990;7.846;2023-03-14T00:47:23;9.70;99.90
30336;DHT22;17142;47.990;7.846;2023-03-14T00:49:50;9.70;99.90
30336;DHT22;17142;47.990;7.846;2023-03-14T00:52:15;9.70;99.90
30336;DHT22;17142;47.990;7.846;2023-03-14T00:54:49;9.70;99.90
30336;DHT22;17142;47.990;7.846;2023-03-14T00:57:21;9.70;99.90
30336;DHT22;17142;47.990;7.846;2023-03-14T00:59:50;9.70;99.90
30336;DHT22;17142;47.990;7.846;2023-03-14T01:02:22;9.60;99.90
30336;DHT22;17142;47.990;7.846;2023-03-14T01:04:54;9.60;99.90
30336;DHT22;17142;47.990;7.846;2023-03-14T01:07:25;9.50;99.90
30336;DHT22;17142;47.990;7.846;2023-03-14T01:09:57;9.50;99.90
30336;DHT22;17142;47.990;7.846;2023-03-14T01:12:25;9.50;99.90
30336;DHT22;17142;47.990;7.846;2023-03-14T01:14:52;9.50;99.90
30336;DHT22;17142;47.990;7.846;2023-03-14T01:17:17;9.50;99.90
30336;DHT22;17142;47.990;7.846;2023-03-14T01:19:49;9.50;99.90
30336;DHT22;17142;47.990;7.846;2023-03-14T01:22:15;9.60;99.90
30336;DHT22;17142;47.990;7.846;2023-03-14T01:25:06;9.50;99.90
30336;DHT22;17142;47.990;7.846;2023-03-14T01:27:35;9.60;99.90
30336;DHT22;17142;47.990;7.846;2023-03-14T01:30:04;9.60;99.90
30336;DHT22;17142;47.990;7.846;2023-03-14T01:32:38;9.60;99.90
30336;DHT22;17142;47.990;7.846;2023-03-14T01:35:10;9.50;99.90
30336;DHT22;17142;47.990;7.846;2023-03-14T01:37:36;9.50;99.90
30336;DHT22;17142;47.990;7.846;2023-03-14T01:40:04;9.40;99.90
30336;DHT22;17142;47.990;7.846;2023-03-14T01:42:47;9.40;99.90
30336;DHT22;17142;47.990;7.846;2023-03-14T01:54:31;9.20;99.90
30336;DHT22;17142;47.990;7.846;2023-03-14T01:57:19;9.10;99.90
30336;DHT22;17142;47.990;7.846;2023-03-14T02:00:00;9.00;99.90
30336;DHT22;17142;47.990;7.846;2023-03-14T02:02:51;9.00;99.90
30336;DHT22;17142;47.990;7.846;2023-03-14T02:05:25;9.00;99.90
30336;DHT22;17142;47.990;7.846;2023-03-14T02:07:56;8.90;99.90
30336;DHT22;17142;47.990;7.846;2023-03-14T02:10:41;9.00;99.90
30336;DHT22;17142;47.990;7.846;2023-03-14T02:13:19;8.90;99.90
30336;DHT22;17142;47.990;7.846;2023-03-14T02:15:53;8.90;99.90
30336;DHT22;17142;47.990;7.846;2023-03-14T02:18:36;8.90;99.90
30336;DHT22;17142;47.990;7.846;2023-03-14T02:27:23;8.90;99.90
30336;DHT22;17142;47.990;7.846;2023-03-14T02:32:17;9.00;99.90
30336;DHT22;17142;47.990;7.846;2023-03-14T02:34:54;9.00;99.90
30336;DHT22;17142;47.990;7.846;2023-03-14T02:40:33;9.10;99.90
30336;DHT22;17142;47.990;7.846;2023-03-14T02:43:01;9.10;99.90
30336;DHT22;17142;47.990;7.846;2023-03-14T02:48:33;9.10;99.90
30336;DHT22;17142;47.990;7.846;2023-03-14T02:51:10;9.10;99.90
30336;DHT22;17142;47.990;7.846;2023-03-14T02:53:41;9.10;99.90
30336;DHT22;17142;47.990;7.846;2023-03-14T02:56:10;9.00;99.90
30336;DHT22;17142;47.990;7.846;2023-03-14T02:58:44;9.10;99.90
30336;DHT22;17142;47.990;7.846;2023-03-14T03:01:16;9.00;99.90
30336;DHT22;17142;47.990;7.846;2023-03-14T03:03:41;9.00;99.90
30336;DHT22;17142;47.990;7.846;2023-03-14T03:06:13;9.00;99.90
30336;DHT22;17142;47.990;7.846;2023-03-14T03:08:47;9.00;99.90
30336;DHT22;17142;47.990;7.846;2023-03-14T03:11:15;9.10;99.90
30336;DHT22;17142;47.990;7.846;2023-03-14T03:13:41;9.10;99.90
30336;DHT22;17142;47.990;7.846;2023-03-14T03:16:25;9.10;99.90
30336;DHT22;17142;47.990;7.846;2023-03-14T03:18:53;9.10;99.90
30336;DHT22;17142;47.990;7.846;2023-03-14T03:21:27;9.10;99.90
30336;DHT22;17142;47.990;7.846;2023-03-14T03:24:00;9.20;99.90
30336;DHT22;17142;47.990;7.846;2023-03-14T03:26:36;9.10;99.90
30336;DHT22;17142;47.990;7.846;2023-03-14T03:29:01;9.10;99.90
30336;DHT22;17142;47.990;7.846;2023-03-14T03:31:27;9.10;99.90
30336;DHT22;17142;47.990;7.846;2023-03-14T03:34:02;9.00;99.90
30336;DHT22;17142;47.990;7.846;2023-03-14T03:37:00;9.10;99.90
30336;DHT22;17142;47.990;7.846;2023-03-14T03:39:26;9.10;99.90
30336;DHT22;17142;47.990;7.846;2023-03-14T03:41:51;9.10;99.90
30336;DHT22;17142;47.990;7.846;2023-03-14T03:44:20;9.10;99.90
30336;DHT22;17142;47.990;7.846;2023-03-14T03:46:46;9.00;99.90
30336;DHT22;17142;47.990;7.846;2023-03-14T03:49:13;9.00;99.90
30336;DHT22;17142;47.990;7.846;2023-03-14T03:51:55;9.00;99.90
30336;DHT22;17142;47.990;7.846;2023-03-14T03:54:21;9.00;99.90
30336;DHT22;17142;47.990;7.846;2023-03-14T03:56:55;9.00;99.90
30336;DHT22;17142;47.990;7.846;2023-03-14T03:59:24;8.90;99.90
30336;DHT22;17142;47.990;7.846;2023-03-14T04:01:58;8.90;99.90
30336;DHT22;17142;47.990;7.846;2023-03-14T04:04:30;8.90;99.90
30336;DHT22;17142;47.990;7.846;2023-03-14T04:06:55;8.90;99.90
30336;DHT22;17142;47.990;7.846;2023-03-14T04:09:27;8.90;99.90
30336;DHT22;17142;47.990;7.846;2023-03-14T04:11:59;8.90;99.90
30336;DHT22;17142;47.990;7.846;2023-03-14T04:14:26;8.90;99.90
30336;DHT22;17142;47.990;7.846;2023-03-14T04:16:58;9.10;99.90
30336;DHT22;17142;47.990;7.846;2023-03-14T04:19:30;9.20;99.90
30336;DHT22;17142;47.990;7.846;2023-03-14T04:22:11;9.20;99.90
30336;DHT22;17142;47.990;7.846;2023-03-14T04:24:36;9.30;99.90
30336;DHT22;17142;47.990;7.846;2023-03-14T04:27:14;9.40;99.90
30336;DHT22;17142;47.990;7.846;2023-03-14T04:29:50;9.50;99.90
30336;DHT22;17142;47.990;7.846;2023-03-14T04:32:16;9.50;99.90
30336;DHT22;17142;47.990;7.846;2023-03-14T04:34:50;9.60;99.90
30336;DHT22;17142;47.990;7.846;2023-03-14T04:37:21;9.60;99.90
30336;DHT22;17142;47.990;7.846;2023-03-14T04:39:52;9.70;99.90
30336;DHT22;17142;47.990;7.846;2023-03-14T04:42:18;9.80;99.90
30336;DHT22;17142;47.990;7.846;2023-03-14T04:44:43;9.80;99.90
30336;DHT22;17142;47.990;7.846;2023-03-14T04:47:15;9.90;99.90
30336;DHT22;17142;47.990;7.846;2023-03-14T04:49:46;9.90;99.90
30336;DHT22;17142;47.990;7.846;2023-03-14T04:52:15;9.90;99.90
30336;DHT22;17142;47.990;7.846;2023-03-14T04:54:49;10.00;99.90
30336;DHT22;17142;47.990;7.846;2023-03-14T04:57:20;10.00;99.90
30336;DHT22;17142;47.990;7.846;2023-03-14T04:59:49;10.00;99.90
30336;DHT22;17142;47.990;7.846;2023-03-14T05:02:15;10.00;99.90
30336;DHT22;17142;47.990;7.846;2023-03-14T05:04:46;10.00;99.90
30336;DHT22;17142;47.990;7.846;2023-03-14T05:07:12;10.00;99.90
30336;DHT22;17142;47.990;7.846;2023-03-14T05:09:38;10.10;99.90
30336;DHT22;17142;47.990;7.846;2023-03-14T05:12:09;10.10;99.90
30336;DHT22;17142;47.990;7.846;2023-03-14T05:14:35;10.10;99.90
30336;DHT22;17142;47.990;7.846;2023-03-14T05:17:03;10.10;99.90
30336;DHT22;17142;47.990;7.846;2023-03-14T05:19:35;10.20;99.90
30336;DHT22;17142;47.990;7.846;2023-03-14T05:22:10;10.20;99.90
30336;DHT22;17142;47.990;7.846;2023-03-14T05:24:41;10.20;99.90
30336;DHT22;17142;47.990;7.846;2023-03-14T05:27:07;10.30;99.90
30336;DHT22;17142;47.990;7.846;2023-03-14T05:29:40;10.30;99.90
30336;DHT22;17142;47.990;7.846;2023-03-14T05:32:10;10.30;99.90
30336;DHT22;17142;47.990;7.846;2023-03-14T05:34:36;10.30;99.90
30336;DHT22;17142;47.990;7.846;2023-03-14T05:37:02;10.30;99.90
30336;DHT22;17142;47.990;7.846;2023-03-14T05:39:33;10.40;99.90
30336;DHT22;17142;47.990;7.846;2023-03-14T05:42:02;10.40;99.90
30336;DHT22;17142;47.990;7.846;2023-03-14T05:44:34;10.40;99.90
30336;DHT22;17142;47.990;7.846;2023-03-14T05:47:02;10.50;99.90
30336;DHT22;17142;47.990;7.846;2023-03-14T05:49:30;10.60;99.90
30336;DHT22;17142;47.990;7.846;2023-03-14T05:52:00;10.60;99.90
30336;DHT22;17142;47.990;7.846;2023-03-14T05:54:26;10.70;99.90
30336;DHT22;17142;47.990;7.846;2023-03-14T05:56:58;10.80;99.90
30336;DHT22;17142;47.990;7.846;2023-03-14T05:59:31;10.80;99.90
30336;DHT22;17142;47.990;7.846;2023-03-14T06:01:56;10.80;99.90
30336;DHT22;17142;47.990;7.846;2023-03-14T06:04:56;10.80;99.90
30336;DHT22;17142;47.990;7.846;2023-03-14T06:07:29;10.80;99.90
30336;DHT22;17142;47.990;7.846;2023-03-14T06:09:55;10.90;99.90
30336;DHT22;17142;47.990;7.846;2023-03-14T06:12:35;10.80;99.90
30336;DHT22;17142;47.990;7.846;2023-03-14T06:15:01;10.80;99.90
30336;DHT22;17142;47.990;7.846;2023-03-14T06:17:31;10.80;99.90
30336;DHT22;17142;47.990;7.846;2023-03-14T06:20:03;10.80;99.90
30336;DHT22;17142;47.990;7.846;2023-03-14T06:22:51;10.80;99.90
30336;DHT22;17142;47.990;7.846;2023-03-14T06:25:16;10.80;99.90
30336;DHT22;17142;47.990;7.846;2023-03-14T06:27:50;10.90;99.90
30336;DHT22;17142;47.990;7.846;2023-03-14T06:30:22;10.90;99.90
30336;DHT22;17142;47.990;7.846;2023-03-14T06:32:57;10.90;99.90
30336;DHT22;17142;47.990;7.846;2023-03-14T06:35:32;10.90;99.90
30336;DHT22;17142;47.990;7.846;2023-03-14T06:38:00;11.00;99.90
30336;DHT22;17142;47.990;7.846;2023-03-14T06:40:34;11.00;99.90
30336;DHT22;17142;47.990;7.846;2023-03-14T06:43:00;11.00;99.90
30336;DHT22;17142;47.990;7.846;2023-03-14T06:45:28;11.10;99.90
30336;DHT22;17142;47.990;7.846;2023-03-14T06:48:03;11.20;99.90
30336;DHT22;17142;47.990;7.846;2023-03-14T06:50:35;11.20;99.90
30336;DHT22;17142;47.990;7.846;2023-03-14T06:53:00;11.40;99.90
30336;DHT22;17142;47.990;7.846;2023-03-14T06:55:26;11.50;99.90
30336;DHT22;17142;47.990;7.846;2023-03-14T06:57:57;11.70;99.90
30336;DHT22;17142;47.990;7.846;2023-03-14T07:00:26;11.80;99.90
30336;DHT22;17142;47.990;7.846;2023-03-14T07:02:58;12.00;99.90
30336;DHT22;17142;47.990;7.846;2023-03-14T07:05:24;12.10;99.90
30336;DHT22;17142;47.990;7.846;2023-03-14T07:08:00;12.10;99.90
30336;DHT22;17142;47.990;7.846;2023-03-14T07:10:34;12.20;99.90
30336;DHT22;17142;47.990;7.846;2023-03-14T07:13:09;12.20;99.60
30336;DHT22;17142;47.990;7.846;2023-03-14T07:15:40;12.30;99.40
30336;DHT22;17142;47.990;7.846;2023-03-14T07:18:12;12.30;98.90
30336;DHT22;17142;47.990;7.846;2023-03-14T07:20:38;12.40;98.60
30336;DHT22;17142;47.990;7.846;2023-03-14T07:23:20;12.50;98.10
30336;DHT22;17142;47.990;7.846;2023-03-14T07:25:47;12.50;98.00
30336;DHT22;17142;47.990;7.846;2023-03-14T07:28:12;12.50;97.60
30336;DHT22;17142;47.990;7.846;2023-03-14T07:30:46;12.70;97.00
30336;DHT22;17142;47.990;7.846;2023-03-14T07:33:19;12.80;96.60
30336;DHT22;17142;47.990;7.846;2023-03-14T07:35:50;12.90;96.60
30336;DHT22;17142;47.990;7.846;2023-03-14T07:38:16;13.10;96.00
30336;DHT22;17142;47.990;7.846;2023-03-14T07:41:04;13.10;95.70
30336;DHT22;17142;47.990;7.846;2023-03-14T07:43:38;13.10;95.20
30336;DHT22;17142;47.990;7.846;2023-03-14T07:46:20;13.00;95.60
30336;DHT22;17142;47.990;7.846;2023-03-14T07:48:45;12.90;95.70
30336;DHT22;17142;47.990;7.846;2023-03-14T07:51:17;12.80;96.00
30336;DHT22;17142;47.990;7.846;2023-03-14T07:53:45;12.80;96.30
30336;DHT22;17142;47.990;7.846;2023-03-14T07:56:17;12.80;96.70
30336;DHT22;17142;47.990;7.846;2023-03-14T07:59:03;12.70;97.20
30336;DHT22;17142;47.990;7.846;2023-03-14T08:01:35;12.60;97.60
30336;DHT22;17142;47.990;7.846;2023-03-14T08:04:07;12.60;98.00
30336;DHT22;17142;47.990;7.846;2023-03-14T08:06:32;12.60;98.10
30336;DHT22;17142;47.990;7.846;2023-03-14T08:08:58;12.50;98.20
30336;DHT22;17142;47.990;7.846;2023-03-14T08:11:30;12.50;98.20
30336;DHT22;17142;47.990;7.846;2023-03-14T08:14:01;12.50;98.80
30336;DHT22;17142;47.990;7.846;2023-03-14T08:16:27;12.40;98.80
30336;DHT22;17142;47.990;7.846;2023-03-14T08:18:59;12.40;99.00
30336;DHT22;17142;47.990;7.846;2023-03-14T08:21:30;12.30;99.40
30336;DHT22;17142;47.990;7.846;2023-03-14T08:24:08;12.30;99.60
30336;DHT22;17142;47.990;7.846;2023-03-14T08:26:34;12.30;99.80
30336;DHT22;17142;47.990;7.846;2023-03-14T08:29:28;12.20;99.90
30336;DHT22;17142;47.990;7.846;2023-03-14T08:31:54;12.10;99.90
30336;DHT22;17142;47.990;7.846;2023-03-14T08:34:21;12.10;99.90
30336;DHT22;17142;47.990;7.846;2023-03-14T08:36:46;12.00;99.90
30336;DHT22;17142;47.990;7.846;2023-03-14T08:39:21;12.00;99.90
30336;DHT22;17142;47.990;7.846;2023-03-14T08:41:49;12.00;99.90
30336;DHT22;17142;47.990;7.846;2023-03-14T08:44:21;11.90;99.90
30336;DHT22;17142;47.990;7.846;2023-03-14T08:46:47;11.90;99.90
30336;DHT22;17142;47.990;7.846;2023-03-14T08:49:18;11.90;99.90
30336;DHT22;17142;47.990;7.846;2023-03-14T08:51:44;11.90;99.90
30336;DHT22;17142;47.990;7.846;2023-03-14T08:57:02;12.00;99.90
30336;DHT22;17142;47.990;7.846;2023-03-14T08:59:33;12.10;99.90
30336;DHT22;17142;47.990;7.846;2023-03-14T09:02:05;12.20;99.90
30336;DHT22;17142;47.990;7.846;2023-03-14T09:04:32;12.30;99.90
30336;DHT22;17142;47.990;7.846;2023-03-14T09:07:03;12.50;99.90
30336;DHT22;17142;47.990;7.846;2023-03-14T09:09:53;12.60;99.90
30336;DHT22;17142;47.990;7.846;2023-03-14T09:12:25;12.70;99.90
30336;DHT22;17142;47.990;7.846;2023-03-14T09:15:00;12.70;99.90
30336;DHT22;17142;47.990;7.846;2023-03-14T09:17:31;12.70;99.90
30336;DHT22;17142;47.990;7.846;2023-03-14T09:20:15;12.70;99.90
30336;DHT22;17142;47.990;7.846;2023-03-14T09:22:45;12.70;99.90
30336;DHT22;17142;47.990;7.846;2023-03-14T09:25:11;12.60;99.90
30336;DHT22;17142;47.990;7.846;2023-03-14T09:27:43;12.60;99.90
30336;DHT22;17142;47.990;7.846;2023-03-14T09:30:10;12.50;99.90
30336;DHT22;17142;47.990;7.846;2023-03-14T09:32:36;12.50;99.90
30336;DHT22;17142;47.990;7.846;2023-03-14T09:35:13;12.50;99.90
30336;DHT22;17142;47.990;7.846;2023-03-14T09:37:45;12.50;99.90
30336;DHT22;17142;47.990;7.846;2023-03-14T09:40:22;12.50;99.90
30336;DHT22;17142;47.990;7.846;2023-03-14T09:42:55;12.50;99.90
30336;DHT22;17142;47.990;7.846;2023-03-14T09:45:43;12.50;99.90
30336;DHT22;17142;47.990;7.846;2023-03-14T09:48:26;12.40;99.90
30336;DHT22;17142;47.990;7.846;2023-03-14T09:51:21;12.30;99.90
30336;DHT22;17142;47.990;7.846;2023-03-14T09:53:50;12.20;99.90
30336;DHT22;17142;47.990;7.846;2023-03-14T09:56:33;12.20;99.90
30336;DHT22;17142;47.990;7.846;2023-03-14T09:59:08;12.10;99.90
30336;DHT22;17142;47.990;7.846;2023-03-14T10:02:14;12.10;99.90
30336;DHT22;17142;47.990;7.846;2023-03-14T10:04:48;12.00;99.90
30336;DHT22;17142;47.990;7.846;2023-03-14T10:07:30;12.00;99.90
30336;DHT22;17142;47.990;7.846;2023-03-14T10:10:17;11.90;99.90
30336;DHT22;17142;47.990;7.846;2023-03-14T10:15:53;11.80;99.90
30336;DHT22;17142;47.990;7.846;2023-03-14T10:18:35;11.80;99.90
30336;DHT22;17142;47.990;7.846;2023-03-14T10:21:50;11.70;99.90
30336;DHT22;17142;47.990;7.846;2023-03-14T10:26:48;11.70;99.90
30336;DHT22;17142;47.990;7.846;2023-03-14T10:29:22;11.80;99.90
30336;DHT22;17142;47.990;7.846;2023-03-14T10:32:05;11.80;99.90
30336;DHT22;17142;47.990;7.846;2023-03-14T10:34:43;11.80;99.90
30336;DHT22;17142;47.990;7.846;2023-03-14T10:37:23;11.80;99.90
30336;DHT22;17142;47.990;7.846;2023-03-14T10:39:57;11.90;99.90
30336;DHT22;17142;47.990;7.846;2023-03-14T10:42:42;11.90;99.90
30336;DHT22;17142;47.990;7.846;2023-03-14T10:45:41;11.80;99.90
30336;DHT22;17142;47.990;7.846;2023-03-14T10:48:23;11.80;99.90
30336;DHT22;17142;47.990;7.846;2023-03-14T10:53:46;11.70;99.90
30336;DHT22;17142;47.990;7.846;2023-03-14T10:56:20;11.70;99.90
30336;DHT22;17142;47.990;7.846;2023-03-14T10:59:15;11.70;99.90
30336;DHT22;17142;47.990;7.846;2023-03-14T11:05:22;11.70;99.90
30336;DHT22;17142;47.990;7.846;2023-03-14T11:10:46;11.60;99.90
30336;DHT22;17142;47.990;7.846;2023-03-14T11:13:32;11.50;99.90
30336;DHT22;17142;47.990;7.846;2023-03-14T11:25:32;11.50;99.90
30336;DHT22;17142;47.990;7.846;2023-03-14T11:28:36;11.40;99.90
30336;DHT22;17142;47.990;7.846;2023-03-14T11:31:26;11.20;99.90
30336;DHT22;17142;47.990;7.846;2023-03-14T11:37:34;11.10;99.90
30336;DHT22;17142;47.990;7.846;2023-03-14T11:40:32;10.30;99.90
30336;DHT22;17142;47.990;7.846;2023-03-14T11:43:38;8.90;99.90
30336;DHT22;17142;47.990;7.846;2023-03-14T11:46:30;8.10;99.90
30336;DHT22;17142;47.990;7.846;2023-03-14T11:57:59;8.10;99.90
30336;DHT22;17142;47.990;7.846;2023-03-14T12:00:40;8.30;99.90
30336;DHT22;17142;47.990;7.846;2023-03-14T12:08:50;8.70;99.90
30336;DHT22;17142;47.990;7.846;2023-03-14T12:11:52;8.90;99.90
30336;DHT22;17142;47.990;7.846;2023-03-14T12:14:52;9.00;99.90
30336;DHT22;17142;47.990;7.846;2023-03-14T12:17:45;9.20;99.90
30336;DHT22;17142;47.990;7.846;2023-03-14T12:20:20;9.10;99.90
30336;DHT22;17142;47.990;7.846;2023-03-14T12:23:10;9.20;99.90
30336;DHT22;17142;47.990;7.846;2023-03-14T12:25:45;9.30;99.90
30336;DHT22;17142;47.990;7.846;2023-03-14T12:28:33;9.60;99.90
30336;DHT22;17142;47.990;7.846;2023-03-14T12:45:30;10.60;99.40
30336;DHT22;17142;47.990;7.846;2023-03-14T12:50:44;11.10;97.00
30336;DHT22;17142;47.990;7.846;2023-03-14T12:58:54;10.90;94.60
30336;DHT22;17142;47.990;7.846;2023-03-14T13:01:34;10.50;94.80
30336;DHT22;17142;47.990;7.846;2023-03-14T13:04:10;10.20;95.30
30336;DHT22;17142;47.990;7.846;2023-03-14T13:06:53;9.90;96.90
30336;DHT22;17142;47.990;7.846;2023-03-14T13:09:52;9.90;96.30
30336;DHT22;17142;47.990;7.846;2023-03-14T13:15:42;9.70;98.90
30336;DHT22;17142;47.990;7.846;2023-03-14T13:23:34;9.40;99.90
30336;DHT22;17142;47.990;7.846;2023-03-14T13:26:22;9.40;99.90
30336;DHT22;17142;47.990;7.846;2023-03-14T13:28:49;9.50;99.90
30336;DHT22;17142;47.990;7.846;2023-03-14T13:31:25;9.50;99.90
30336;DHT22;17142;47.990;7.846;2023-03-14T13:33:58;9.70;97.30
30336;DHT22;17142;47.990;7.846;2023-03-14T13:36:24;9.70;96.80
30336;DHT22;17142;47.990;7.846;2023-03-14T13:38:59;9.60;96.80
30336;DHT22;17142;47.990;7.846;2023-03-14T13:41:31;9.70;96.50
30336;DHT22;17142;47.990;7.846;2023-03-14T13:44:07;9.80;95.80
30336;DHT22;17142;47.990;7.846;2023-03-14T13:46:39;9.80;96.30
30336;DHT22;17142;47.990;7.846;2023-03-14T13:49:17;9.80;96.20
30336;DHT22;17142;47.990;7.846;2023-03-14T13:51:56;9.80;96.00
30336;DHT22;17142;47.990;7.846;2023-03-14T13:54:22;9.90;96.10
30336;DHT22;17142;47.990;7.846;2023-03-14T13:57:07;10.00;94.10
30336;DHT22;17142;47.990;7.846;2023-03-14T13:59:48;10.20;91.60
30336;DHT22;17142;47.990;7.846;2023-03-14T14:02:38;10.20;91.30
30336;DHT22;17142;47.990;7.846;2023-03-14T14:05:14;10.20;91.40
30336;DHT22;17142;47.990;7.846;2023-03-14T14:07:43;10.20;91.60
30336;DHT22;17142;47.990;7.846;2023-03-14T14:10:12;10.10;89.10
30336;DHT22;17142;47.990;7.846;2023-03-14T14:13:02;10.10;89.60
30336;DHT22;17142;47.990;7.846;2023-03-14T14:15:54;10.10;88.00
30336;DHT22;17142;47.990;7.846;2023-03-14T14:18:29;10.10;88.00
30336;DHT22;17142;47.990;7.846;2023-03-14T14:20:56;10.00;91.70
30336;DHT22;17142;47.990;7.846;2023-03-14T14:23:33;9.90;94.60
30336;DHT22;17142;47.990;7.846;2023-03-14T14:26:07;9.80;95.70
30336;DHT22;17142;47.990;7.846;2023-03-14T14:28:38;9.70;96.20
30336;DHT22;17142;47.990;7.846;2023-03-14T14:31:26;9.70;96.70
30336;DHT22;17142;47.990;7.846;2023-03-14T14:33:58;9.70;97.80
30336;DHT22;17142;47.990;7.846;2023-03-14T14:36:49;9.80;97.30
30336;DHT22;17142;47.990;7.846;2023-03-14T14:39:26;10.00;95.60
30336;DHT22;17142;47.990;7.846;2023-03-14T14:42:12;10.10;95.20
30336;DHT22;17142;47.990;7.846;2023-03-14T14:45:00;10.20;94.30
30336;DHT22;17142;47.990;7.846;2023-03-14T14:47:30;10.40;94.50
30336;DHT22;17142;47.990;7.846;2023-03-14T14:50:26;10.50;94.40
30336;DHT22;17142;47.990;7.846;2023-03-14T14:53:30;10.80;93.90
30336;DHT22;17142;47.990;7.846;2023-03-14T14:56:25;10.90;93.80
30336;DHT22;17142;47.990;7.846;2023-03-14T14:59:05;10.90;92.90
30336;DHT22;17142;47.990;7.846;2023-03-14T15:01:42;10.80;93.00
30336;DHT22;17142;47.990;7.846;2023-03-14T15:04:20;10.70;93.00
30336;DHT22;17142;47.990;7.846;2023-03-14T15:06:49;10.70;92.30
30336;DHT22;17142;47.990;7.846;2023-03-14T15:09:21;10.70;91.10
30336;DHT22;17142;47.990;7.846;2023-03-14T15:11:56;10.70;90.10
30336;DHT22;17142;47.990;7.846;2023-03-14T15:14:33;10.80;90.30
30336;DHT22;17142;47.990;7.846;2023-03-14T15:16:59;10.80;90.50
30336;DHT22;17142;47.990;7.846;2023-03-14T15:19:28;10.80;90.70
30336;DHT22;17142;47.990;7.846;2023-03-14T15:22:18;10.70;89.10
30336;DHT22;17142;47.990;7.846;2023-03-14T15:24:53;10.70;88.50
30336;DHT22;17142;47.990;7.846;2023-03-14T15:27:18;10.70;89.00
30336;DHT22;17142;47.990;7.846;2023-03-14T15:29:50;10.70;89.40
30336;DHT22;17142;47.990;7.846;2023-03-14T15:32:22;10.80;89.20
30336;DHT22;17142;47.990;7.846;2023-03-14T15:34:50;11.00;89.00
30336;DHT22;17142;47.990;7.846;2023-03-14T15:37:26;11.20;88.00
30336;DHT22;17142;47.990;7.846;2023-03-14T15:39:54;11.30;86.50
30336;DHT22;17142;47.990;7.846;2023-03-14T15:42:23;11.20;87.00
30336;DHT22;17142;47.990;7.846;2023-03-14T15:44:55;11.10;87.40
30336;DHT22;17142;47.990;7.846;2023-03-14T15:47:20;10.90;87.90
30336;DHT22;17142;47.990;7.846;2023-03-14T15:50:12;10.80;87.80
30336;DHT22;17142;47.990;7.846;2023-03-14T15:52:44;10.60;89.00
30336;DHT22;17142;47.990;7.846;2023-03-14T15:55:15;10.40;90.20
30336;DHT22;17142;47.990;7.846;2023-03-14T15:57:49;10.20;90.00
30336;DHT22;17142;47.990;7.846;2023-03-14T16:00:17;10.10;90.60
30336;DHT22;17142;47.990;7.846;2023-03-14T16:02:49;10.10;91.00
30336;DHT22;17142;47.990;7.846;2023-03-14T16:05:17;10.00;91.50
30336;DHT22;17142;47.990;7.846;2023-03-14T16:07:45;10.10;91.70
30336;DHT22;17142;47.990;7.846;2023-03-14T16:10:20;10.20;92.10
30336;DHT22;17142;47.990;7.846;2023-03-14T16:13:06;10.20;91.90
30336;DHT22;17142;47.990;7.846;2023-03-14T16:15:41;10.20;92.20
30336;DHT22;17142;47.990;7.846;2023-03-14T16:18:10;10.20;92.20
30336;DHT22;17142;47.990;7.846;2023-03-14T16:20:36;10.10;92.50
30336;DHT22;17142;47.990;7.846;2023-03-14T16:23:02;10.10;92.70
30336;DHT22;17142;47.990;7.846;2023-03-14T16:25:33;10.10;93.10
30336;DHT22;17142;47.990;7.846;2023-03-14T16:27:59;10.00;93.30
30336;DHT22;17142;47.990;7.846;2023-03-14T16:30:29;9.90;95.80
30336;DHT22;17142;47.990;7.846;2023-03-14T16:33:01;9.70;99.40
30336;DHT22;17142;47.990;7.846;2023-03-14T16:35:35;9.20;99.90
30336;DHT22;17142;47.990;7.846;2023-03-14T16:38:09;8.90;99.90
30336;DHT22;17142;47.990;7.846;2023-03-14T16:40:35;8.60;99.90
30336;DHT22;17142;47.990;7.846;2023-03-14T16:43:09;8.40;99.90
30336;DHT22;17142;47.990;7.846;2023-03-14T16:45:36;8.30;99.90
30336;DHT22;17142;47.990;7.846;2023-03-14T16:48:06;8.30;99.90
30336;DHT22;17142;47.990;7.846;2023-03-14T16:50:53;8.20;99.90
30336;DHT22;17142;47.990;7.846;2023-03-14T16:53:19;8.20;99.90
30336;DHT22;17142;47.990;7.846;2023-03-14T17:01:09;8.20;99.90
30336;DHT22;17142;47.990;7.846;2023-03-14T17:03:41;8.30;99.90
30336;DHT22;17142;47.990;7.846;2023-03-14T17:06:10;8.30;99.90
30336;DHT22;17142;47.990;7.846;2023-03-14T17:08:36;8.30;99.90
30336;DHT22;17142;47.990;7.846;2023-03-14T17:11:04;8.20;99.90
30336;DHT22;17142;47.990;7.846;2023-03-14T17:13:31;8.20;99.90
30336;DHT22;17142;47.990;7.846;2023-03-14T17:15:58;8.20;99.90
30336;DHT22;17142;47.990;7.846;2023-03-14T17:18:27;8.10;99.90
30336;DHT22;17142;47.990;7.846;2023-03-14T17:20:56;7.90;99.90
30336;DHT22;17142;47.990;7.846;2023-03-14T17:23:23;7.70;99.90
30336;DHT22;17142;47.990;7.846;2023-03-14T17:25:50;7.60;99.90
30336;DHT22;17142;47.990;7.846;2023-03-14T17:28:16;7.40;99.90
30336;DHT22;17142;47.990;7.846;2023-03-14T17:30:45;7.40;99.90
30336;DHT22;17142;47.990;7.846;2023-03-14T17:33:11;7.50;99.90
30336;DHT22;17142;47.990;7.846;2023-03-14T17:35:40;7.40;99.90
30336;DHT22;17142;47.990;7.846;2023-03-14T17:38:06;7.30;99.90
30336;DHT22;17142;47.990;7.846;2023-03-14T17:40:32;7.40;99.90
30336;DHT22;17142;47.990;7.846;2023-03-14T17:42:58;7.40;99.90
30336;DHT22;17142;47.990;7.846;2023-03-14T17:45:23;7.40;99.90
30336;DHT22;17142;47.990;7.846;2023-03-14T17:47:49;7.40;99.90
30336;DHT22;17142;47.990;7.846;2023-03-14T17:50:17;7.40;99.90
30336;DHT22;17142;47.990;7.846;2023-03-14T17:52:43;7.40;99.90
30336;DHT22;17142;47.990;7.846;2023-03-14T17:55:10;7.40;99.90
30336;DHT22;17142;47.990;7.846;2023-03-14T17:57:40;7.40;99.90
30336;DHT22;17142;47.990;7.846;2023-03-14T18:00:11;7.40;99.90
30336;DHT22;17142;47.990;7.846;2023-03-14T18:02:37;7.40;99.90
30336;DHT22;17142;47.990;7.846;2023-03-14T18:05:05;7.50;99.90